createdAt,value
2023-01-29T00:01:58.805Z,-2.86
2023-01-29T00:04:26.603Z,-2.89
2023-01-29T00:06:53.219Z,-2.80
2023-01-29T00:09:19.829Z,-2.79
2023-01-29T00:11:47.156Z,-2.87
2023-01-29T00:14:13.879Z,-2.83
2023-01-29T00:16:42.830Z,-2.85
2023-01-29T00:19:09.553Z,-2.97
2023-01-29T00:21:36.724Z,-2.91
2023-01-29T00:24:03.441Z,-2.89
2023-01-29T00:26:30.123Z,-2.94
2023-01-29T00:29:00.699Z,-2.93
2023-01-29T00:31:27.460Z,-2.97
2023-01-29T00:33:54.049Z,-2.94
2023-01-29T00:36:22.173Z,-2.93
2023-01-29T00:38:59.745Z,-3.11
2023-01-29T00:41:47.094Z,-3.06
2023-01-29T00:44:32.686Z,-3.18
2023-01-29T00:47:00.107Z,-3.23
2023-01-29T00:49:26.711Z,-3.22
2023-01-29T00:52:11.806Z,-3.18
2023-01-29T00:54:38.412Z,-3.16
2023-01-29T00:57:05.165Z,-3.25
2023-01-29T00:59:31.940Z,-3.34
2023-01-29T01:02:25.365Z,-3.33
2023-01-29T01:04:51.997Z,-3.32
2023-01-29T01:07:18.803Z,-3.39
2023-01-29T01:10:03.883Z,-3.37
2023-01-29T01:12:30.767Z,-3.45
2023-01-29T01:14:57.856Z,-3.41
2023-01-29T01:17:24.585Z,-3.31
2023-01-29T01:19:51.218Z,-3.30
2023-01-29T01:22:17.842Z,-3.38
2023-01-29T01:24:44.447Z,-3.40
2023-01-29T01:27:11.140Z,-3.38
2023-01-29T01:29:37.991Z,-3.37
2023-01-29T01:32:06.054Z,-3.40
2023-01-29T01:34:32.885Z,-3.37
2023-01-29T01:36:59.530Z,-3.34
2023-01-29T01:39:26.092Z,-3.36
2023-01-29T01:41:56.339Z,-3.31
2023-01-29T01:44:59.415Z,-3.36
2023-01-29T01:47:52.304Z,-3.39
2023-01-29T01:50:24.236Z,-3.42
2023-01-29T01:52:55.962Z,-3.46
2023-01-29T01:55:26.609Z,-3.40
2023-01-29T01:57:57.371Z,-3.35
2023-01-29T02:00:26.112Z,-3.27
2023-01-29T02:03:12.350Z,-3.18
2023-01-29T02:05:58.962Z,-3.18
2023-01-29T02:09:01.591Z,-3.25
2023-01-29T02:11:28.174Z,-3.24
2023-01-29T02:13:54.786Z,-3.26
2023-01-29T02:16:22.981Z,-3.31
2023-01-29T02:18:50.541Z,-3.28
2023-01-29T02:21:35.250Z,-3.34
2023-01-29T02:24:23.578Z,-3.36
2023-01-29T02:27:04.839Z,-3.40
2023-01-29T02:29:35.404Z,-3.41
2023-01-29T02:32:17.604Z,-3.43
2023-01-29T02:35:15.541Z,-3.51
2023-01-29T02:38:11.059Z,-3.55
2023-01-29T02:40:54.303Z,-3.56
2023-01-29T02:43:42.505Z,-3.53
2023-01-29T02:46:32.439Z,-3.51
2023-01-29T02:49:22.316Z,-3.43
2023-01-29T02:52:05.242Z,-3.39
2023-01-29T02:54:31.919Z,-3.38
2023-01-29T02:57:08.065Z,-3.38
2023-01-29T02:59:41.670Z,-3.41
2023-01-29T03:02:20.948Z,-3.45
2023-01-29T03:04:55.092Z,-3.43
2023-01-29T03:07:52.131Z,-3.47
2023-01-29T03:10:37.406Z,-3.52
2023-01-29T03:13:12.725Z,-3.45
2023-01-29T03:15:47.016Z,-3.46
2023-01-29T03:18:19.047Z,-3.53
2023-01-29T03:20:53.924Z,-3.43
2023-01-29T03:23:52.753Z,-3.54
2023-01-29T03:26:41.320Z,-3.45
2023-01-29T03:29:28.670Z,-3.42
2023-01-29T03:32:08.607Z,-3.44
2023-01-29T03:34:45.814Z,-3.49
2023-01-29T03:37:19.452Z,-3.60
2023-01-29T03:39:46.156Z,-3.67
2023-01-29T03:42:15.725Z,-3.58
2023-01-29T03:44:51.735Z,-3.60
2023-01-29T03:47:33.296Z,-3.68
2023-01-29T03:50:05.384Z,-3.74
2023-01-29T03:52:39.122Z,-3.72
2023-01-29T03:55:13.296Z,-3.68
2023-01-29T03:58:22.843Z,-3.65
2023-01-29T04:01:14.875Z,-3.68
2023-01-29T04:04:33.614Z,-3.69
2023-01-29T04:07:33.537Z,-3.76
2023-01-29T04:10:12.167Z,-3.80
2023-01-29T04:13:05.592Z,-3.79
2023-01-29T04:15:38.177Z,-3.79
2023-01-29T04:18:05.134Z,-3.78
2023-01-29T04:20:31.707Z,-3.74
2023-01-29T04:22:58.564Z,-3.74
2023-01-29T04:25:30.648Z,-3.76
2023-01-29T04:28:20.796Z,-3.88
2023-01-29T04:30:58.701Z,-4.02
2023-01-29T04:33:31.901Z,-4.00
2023-01-29T04:36:16.506Z,-4.09
2023-01-29T04:39:18.001Z,-4.17
2023-01-29T04:41:55.790Z,-4.22
2023-01-29T04:44:50.039Z,-4.27
2023-01-29T04:47:29.904Z,-4.32
2023-01-29T04:50:09.825Z,-4.39
2023-01-29T04:52:58.846Z,-4.51
2023-01-29T04:55:53.529Z,-4.44
2023-01-29T04:58:20.170Z,-4.50
2023-01-29T05:00:50.432Z,-4.55
2023-01-29T05:03:17.303Z,-4.58
2023-01-29T05:05:49.132Z,-4.57
2023-01-29T05:08:20.136Z,-4.62
2023-01-29T05:10:51.698Z,-4.53
2023-01-29T05:13:44.478Z,-4.50
2023-01-29T05:16:21.732Z,-4.54
2023-01-29T05:18:48.540Z,-4.51
2023-01-29T05:21:15.062Z,-4.59
2023-01-29T05:23:59.598Z,-4.52
2023-01-29T05:26:46.113Z,-4.56
2023-01-29T05:29:12.713Z,-4.59
2023-01-29T05:31:39.377Z,-4.70
2023-01-29T05:34:05.963Z,-4.69
2023-01-29T05:36:32.585Z,-4.68
2023-01-29T05:38:59.177Z,-4.62
2023-01-29T05:41:25.741Z,-4.56
2023-01-29T05:43:52.344Z,-4.52
2023-01-29T05:46:18.932Z,-4.55
2023-01-29T05:48:45.621Z,-4.48
2023-01-29T05:51:12.267Z,-4.47
2023-01-29T05:53:38.845Z,-4.50
2023-01-29T05:56:05.761Z,-4.51
2023-01-29T05:58:34.141Z,-4.49
2023-01-29T06:01:18.186Z,-4.48
2023-01-29T06:03:46.437Z,-4.55
2023-01-29T06:06:13.251Z,-4.59
2023-01-29T06:08:40.255Z,-4.62
2023-01-29T06:11:11.828Z,-4.54
2023-01-29T06:13:39.135Z,-4.49
2023-01-29T06:16:07.162Z,-4.46
2023-01-29T06:18:33.845Z,-4.42
2023-01-29T06:21:02.530Z,-4.34
2023-01-29T06:23:30.000Z,-4.32
2023-01-29T06:26:05.824Z,-4.30
2023-01-29T06:28:32.645Z,-4.20
2023-01-29T06:31:21.004Z,-4.17
2023-01-29T06:33:48.991Z,-4.21
2023-01-29T06:36:15.567Z,-4.20
2023-01-29T06:38:42.152Z,-4.12
2023-01-29T06:41:13.295Z,-4.13
2023-01-29T06:43:40.061Z,-4.16
2023-01-29T06:46:08.443Z,-4.18
2023-01-29T06:48:35.762Z,-4.26
2023-01-29T06:51:07.790Z,-4.20
2023-01-29T06:53:35.662Z,-4.20
2023-01-29T06:56:02.578Z,-4.11
2023-01-29T06:58:29.280Z,-4.08
2023-01-29T07:01:06.744Z,-4.10
2023-01-29T07:03:33.321Z,-4.08
2023-01-29T07:06:00.379Z,-4.02
2023-01-29T07:08:27.688Z,-4.05
2023-01-29T07:11:00.075Z,-4.00
2023-01-29T07:13:26.989Z,-4.01
2023-01-29T07:15:53.565Z,-4.01
2023-01-29T07:18:28.663Z,-4.21
2023-01-29T07:20:56.860Z,-4.05
2023-01-29T07:23:24.154Z,-3.96
2023-01-29T07:25:51.288Z,-4.00
2023-01-29T07:28:18.867Z,-4.03
2023-01-29T07:30:45.457Z,-4.04
2023-01-29T07:33:12.114Z,-4.06
2023-01-29T07:35:43.397Z,-4.03
2023-01-29T07:38:11.207Z,-3.96
2023-01-29T07:40:38.046Z,-3.92
2023-01-29T07:43:07.368Z,-3.86
2023-01-29T07:45:36.337Z,-3.82
2023-01-29T07:48:05.075Z,-3.75
2023-01-29T07:50:35.739Z,-3.75
2023-01-29T07:53:02.408Z,-3.68
2023-01-29T07:55:31.126Z,-3.67
2023-01-29T07:58:03.900Z,-3.68
2023-01-29T08:00:37.510Z,-3.59
2023-01-29T08:03:11.056Z,-3.60
2023-01-29T08:05:38.070Z,-3.51
2023-01-29T08:08:07.249Z,-3.44
2023-01-29T08:10:37.691Z,-3.39
2023-01-29T08:13:05.619Z,-3.44
2023-01-29T08:15:37.902Z,-3.44
2023-01-29T08:18:05.805Z,-3.53
2023-01-29T08:20:32.497Z,-3.55
2023-01-29T08:23:04.668Z,-3.44
2023-01-29T08:25:32.115Z,-3.30
2023-01-29T08:27:59.441Z,-3.21
2023-01-29T08:30:31.638Z,-3.08
2023-01-29T08:32:58.630Z,-2.98
2023-01-29T08:35:25.865Z,-3.00
2023-01-29T08:37:54.433Z,-3.03
2023-01-29T08:40:21.430Z,-3.10
2023-01-29T08:42:48.094Z,-3.07
2023-01-29T08:45:14.700Z,-3.18
2023-01-29T08:47:50.538Z,-3.28
2023-01-29T08:50:18.233Z,-3.46
2023-01-29T08:52:45.480Z,-3.51
2023-01-29T08:55:16.108Z,-3.48
2023-01-29T08:57:42.926Z,-3.40
2023-01-29T09:00:11.671Z,-3.33
2023-01-29T09:02:38.382Z,-3.23
2023-01-29T09:05:05.578Z,-3.16
2023-01-29T09:07:33.022Z,-3.17
2023-01-29T09:09:59.737Z,-3.31
2023-01-29T09:12:26.333Z,-3.38
2023-01-29T09:14:53.071Z,-3.44
2023-01-29T09:17:24.812Z,-3.42
2023-01-29T09:19:53.212Z,-3.42
2023-01-29T09:22:20.405Z,-3.43
2023-01-29T09:24:47.112Z,-3.31
2023-01-29T09:27:14.724Z,-3.15
2023-01-29T09:29:41.378Z,-2.86
2023-01-29T09:32:07.982Z,-2.68
2023-01-29T09:34:35.064Z,-2.58
2023-01-29T09:37:01.639Z,-2.65
2023-01-29T09:39:28.275Z,-2.81
2023-01-29T09:42:08.262Z,-2.86
2023-01-29T09:44:53.237Z,-2.92
2023-01-29T09:47:28.263Z,-2.97
2023-01-29T09:50:18.429Z,-2.97
2023-01-29T09:52:55.080Z,-2.91
2023-01-29T09:55:32.661Z,-2.97
2023-01-29T09:58:35.311Z,-2.95
2023-01-29T10:01:31.973Z,-2.91
2023-01-29T10:04:21.410Z,-2.95
2023-01-29T10:06:47.927Z,-3.14
2023-01-29T10:09:36.154Z,-3.17
2023-01-29T10:12:20.944Z,-3.13
2023-01-29T10:15:02.696Z,-2.97
2023-01-29T10:17:35.182Z,-2.95
2023-01-29T10:20:27.736Z,-3.01
2023-01-29T10:22:57.051Z,-2.99
2023-01-29T10:25:24.157Z,-2.91
2023-01-29T10:27:57.187Z,-2.83
2023-01-29T10:30:39.666Z,-2.72
2023-01-29T10:33:17.063Z,-2.71
2023-01-29T10:35:50.140Z,-2.82
2023-01-29T10:38:42.999Z,-2.67
2023-01-29T10:41:47.339Z,-2.58
2023-01-29T10:44:31.674Z,-2.64
2023-01-29T10:47:10.300Z,-2.62
2023-01-29T10:50:14.401Z,-2.53
2023-01-29T10:52:59.704Z,-2.59
2023-01-29T10:56:01.276Z,-2.62
2023-01-29T10:58:43.043Z,-2.58
2023-01-29T11:01:10.327Z,-2.61
2023-01-29T11:03:37.590Z,-2.79
2023-01-29T11:06:17.121Z,-2.75
2023-01-29T11:08:52.720Z,-2.75
2023-01-29T11:11:22.436Z,-2.73
2023-01-29T11:14:00.189Z,-2.90
2023-01-29T11:16:30.232Z,-2.81
2023-01-29T11:19:01.674Z,-2.72
2023-01-29T11:21:29.818Z,-2.69
2023-01-29T11:24:07.588Z,-2.75
2023-01-29T11:26:38.657Z,-2.57
2023-01-29T11:29:05.362Z,-2.62
2023-01-29T11:31:39.541Z,-2.54
2023-01-29T11:34:16.810Z,-2.77
2023-01-29T11:36:45.049Z,-2.47
2023-01-29T11:39:19.615Z,-2.46
2023-01-29T11:42:04.723Z,-2.45
2023-01-29T11:44:33.429Z,-2.19
2023-01-29T11:47:14.690Z,-2.26
2023-01-29T11:49:46.763Z,-2.31
2023-01-29T11:52:15.667Z,-2.20
2023-01-29T11:55:02.246Z,-2.26
2023-01-29T11:57:39.548Z,-2.46
2023-01-29T12:00:23.390Z,-2.52
2023-01-29T12:03:12.939Z,-2.57
2023-01-29T12:05:41.477Z,-2.49
2023-01-29T12:08:18.439Z,-2.39
2023-01-29T12:10:45.123Z,-2.38
2023-01-29T12:13:15.858Z,-2.28
2023-01-29T12:15:43.082Z,-2.21
2023-01-29T12:18:32.242Z,-2.17
2023-01-29T12:21:25.336Z,-2.15
2023-01-29T12:24:01.553Z,-2.17
2023-01-29T12:26:35.999Z,-2.07
2023-01-29T12:29:20.988Z,-2.04
2023-01-29T12:32:10.310Z,-2.02
2023-01-29T12:34:46.448Z,-2.02
2023-01-29T12:37:40.596Z,-1.98
2023-01-29T12:40:16.901Z,-1.97
2023-01-29T12:42:48.249Z,-2.08
2023-01-29T12:45:28.313Z,-2.20
2023-01-29T12:48:02.327Z,-2.24
2023-01-29T12:50:34.066Z,-2.34
2023-01-29T12:53:27.783Z,-2.42
2023-01-29T12:56:05.664Z,-2.42
2023-01-29T12:58:35.184Z,-2.37
2023-01-29T13:01:13.144Z,-2.41
2023-01-29T13:04:08.871Z,-2.35
2023-01-29T13:06:50.799Z,-2.31
2023-01-29T13:09:21.666Z,-2.28
2023-01-29T13:12:07.780Z,-2.22
2023-01-29T13:14:58.771Z,-2.25
2023-01-29T13:17:42.953Z,-2.22
2023-01-29T13:20:23.242Z,-2.23
2023-01-29T13:22:54.468Z,-2.26
2023-01-29T13:25:21.173Z,-2.21
2023-01-29T13:27:49.306Z,-2.18
2023-01-29T13:30:31.786Z,-2.20
2023-01-29T13:33:11.445Z,-2.26
2023-01-29T13:35:45.087Z,-2.24
2023-01-29T13:38:45.067Z,-2.27
2023-01-29T13:41:12.409Z,-2.28
2023-01-29T13:43:42.608Z,-2.26
2023-01-29T13:46:12.846Z,-2.36
2023-01-29T13:48:46.845Z,-2.21
2023-01-29T13:51:19.645Z,-2.31
2023-01-29T13:53:58.660Z,-2.36
2023-01-29T13:56:56.212Z,-2.38
2023-01-29T13:59:55.502Z,-2.34
2023-01-29T14:02:27.726Z,-2.40
2023-01-29T14:05:32.198Z,-2.47
2023-01-29T14:08:14.118Z,-2.46
2023-01-29T14:10:43.160Z,-2.47
2023-01-29T14:13:18.149Z,-2.56
2023-01-29T14:16:05.107Z,-2.64
2023-01-29T14:18:34.488Z,-2.69
2023-01-29T14:21:07.073Z,-2.75
2023-01-29T14:23:36.161Z,-2.78
2023-01-29T14:26:06.184Z,-2.73
2023-01-29T14:28:34.995Z,-2.77
2023-01-29T14:31:03.114Z,-2.91
2023-01-29T14:33:42.476Z,-3.00
2023-01-29T14:36:13.695Z,-2.95
2023-01-29T14:38:46.411Z,-2.92
2023-01-29T14:41:29.683Z,-2.84
2023-01-29T14:44:41.268Z,-2.85
2023-01-29T14:47:18.917Z,-2.97
2023-01-29T14:49:57.862Z,-2.92
2023-01-29T14:52:40.530Z,-2.94
2023-01-29T14:55:15.882Z,-3.02
2023-01-29T14:57:43.063Z,-3.09
2023-01-29T15:00:28.520Z,-3.08
2023-01-29T15:03:01.973Z,-3.08
2023-01-29T15:05:35.476Z,-3.12
2023-01-29T15:08:30.279Z,-3.15
2023-01-29T15:11:19.326Z,-3.21
2023-01-29T15:14:07.071Z,-3.25
2023-01-29T15:16:52.724Z,-3.24
2023-01-29T15:19:48.102Z,-3.51
2023-01-29T15:22:19.915Z,-3.20
2023-01-29T15:25:01.518Z,-3.13
2023-01-29T15:27:29.038Z,-3.15
2023-01-29T15:30:01.715Z,-3.24
2023-01-29T15:32:33.163Z,-3.12
2023-01-29T15:35:00.707Z,-3.17
2023-01-29T15:37:32.935Z,-3.15
2023-01-29T15:40:01.160Z,-3.24
2023-01-29T15:42:29.315Z,-3.21
2023-01-29T15:44:56.218Z,-3.28
2023-01-29T15:47:30.894Z,-3.31
2023-01-29T15:49:58.070Z,-3.28
2023-01-29T15:52:35.274Z,-3.29
2023-01-29T15:55:06.257Z,-3.29
2023-01-29T15:57:41.438Z,-3.34
2023-01-29T16:00:20.104Z,-3.49
2023-01-29T16:02:46.813Z,-3.45
2023-01-29T16:05:23.903Z,-3.51
2023-01-29T16:07:51.863Z,-3.44
2023-01-29T16:10:30.702Z,-3.53
2023-01-29T16:12:58.771Z,-3.45
2023-01-29T16:15:38.027Z,-3.42
2023-01-29T16:18:21.368Z,-3.45
2023-01-29T16:20:53.323Z,-3.48
2023-01-29T16:23:31.856Z,-3.47
2023-01-29T16:26:03.523Z,-3.49
2023-01-29T16:28:30.332Z,-3.52
2023-01-29T16:31:01.907Z,-3.63
2023-01-29T16:33:36.480Z,-3.55
2023-01-29T16:36:11.728Z,-3.56
2023-01-29T16:38:43.183Z,-3.59
2023-01-29T16:41:22.104Z,-3.57
2023-01-29T16:43:56.508Z,-3.60
2023-01-29T16:46:36.659Z,-3.60
2023-01-29T16:49:26.061Z,-3.65
2023-01-29T16:51:53.875Z,-3.70
2023-01-29T16:54:27.818Z,-3.68
2023-01-29T16:57:00.213Z,-3.63
2023-01-29T16:59:36.905Z,-3.63
2023-01-29T17:02:04.838Z,-3.64
2023-01-29T17:04:33.030Z,-3.59
2023-01-29T17:07:01.689Z,-3.55
2023-01-29T17:09:34.910Z,-3.52
2023-01-29T17:12:05.664Z,-3.49
2023-01-29T17:14:33.354Z,-3.48
2023-01-29T17:17:14.530Z,-3.47
2023-01-29T17:19:41.064Z,-3.45
2023-01-29T17:22:15.348Z,-3.44
2023-01-29T17:24:42.620Z,-3.54
2023-01-29T17:27:27.068Z,-3.43
2023-01-29T17:29:54.179Z,-3.46
2023-01-29T17:32:20.983Z,-3.42
2023-01-29T17:34:47.652Z,-3.40
2023-01-29T17:37:16.261Z,-3.37
2023-01-29T17:39:44.104Z,-3.34
2023-01-29T17:42:15.281Z,-3.40
2023-01-29T17:44:43.238Z,-3.47
2023-01-29T17:47:13.932Z,-3.48
2023-01-29T17:49:44.309Z,-3.53
2023-01-29T17:52:11.153Z,-3.52
2023-01-29T17:54:37.912Z,-3.54
2023-01-29T17:57:04.579Z,-3.45
2023-01-29T17:59:33.395Z,-3.58
2023-01-29T18:02:00.482Z,-3.49
2023-01-29T18:04:27.602Z,-3.52
2023-01-29T18:06:55.791Z,-3.47
2023-01-29T18:09:22.585Z,-3.55
2023-01-29T18:11:50.513Z,-3.61
2023-01-29T18:14:17.733Z,-3.54
2023-01-29T18:16:45.714Z,-3.57
2023-01-29T18:19:31.208Z,-3.58
2023-01-29T18:21:58.013Z,-3.54
2023-01-29T18:24:26.905Z,-3.55
2023-01-29T18:26:53.578Z,-3.62
2023-01-29T18:29:30.563Z,-3.61
2023-01-29T18:31:57.360Z,-3.49
2023-01-29T18:34:24.048Z,-3.47
2023-01-29T18:36:50.828Z,-3.54
2023-01-29T18:39:17.448Z,-3.54
2023-01-29T18:41:44.218Z,-3.61
2023-01-29T18:44:11.091Z,-3.60
2023-01-29T18:46:37.608Z,-3.63
2023-01-29T18:49:05.287Z,-3.59
2023-01-29T18:51:31.897Z,-3.58
2023-01-29T18:53:58.508Z,-3.68
2023-01-29T18:56:25.087Z,-3.86
2023-01-29T18:58:55.390Z,-3.93
2023-01-29T19:01:23.504Z,-3.95
2023-01-29T19:03:51.500Z,-3.95
2023-01-29T19:06:19.144Z,-3.86
2023-01-29T19:08:47.476Z,-3.82
2023-01-29T19:11:14.676Z,-3.85
2023-01-29T19:13:42.634Z,-3.86
2023-01-29T19:16:11.163Z,-4.08
2023-01-29T19:18:38.986Z,-3.92
2023-01-29T19:21:10.837Z,-3.90
2023-01-29T19:23:38.300Z,-3.99
2023-01-29T19:26:05.753Z,-3.87
2023-01-29T19:28:32.960Z,-3.95
2023-01-29T19:31:00.896Z,-3.89
2023-01-29T19:33:28.284Z,-3.89
2023-01-29T19:35:59.374Z,-3.80
2023-01-29T19:38:26.511Z,-3.85
2023-01-29T19:40:55.107Z,-3.96
2023-01-29T19:43:21.765Z,-3.95
2023-01-29T19:45:50.694Z,-4.02
2023-01-29T19:48:21.380Z,-4.03
2023-01-29T19:50:59.485Z,-3.96
2023-01-29T19:53:28.739Z,-4.08
2023-01-29T19:56:02.966Z,-3.99
2023-01-29T19:58:30.231Z,-4.01
2023-01-29T20:01:15.592Z,-3.94
2023-01-29T20:03:42.499Z,-3.97
2023-01-29T20:06:09.453Z,-4.00
2023-01-29T20:08:37.093Z,-4.05
2023-01-29T20:11:05.872Z,-4.14
2023-01-29T20:13:33.736Z,-3.97
2023-01-29T20:16:05.639Z,-3.94
2023-01-29T20:18:32.627Z,-3.92
2023-01-29T20:21:00.283Z,-3.98
2023-01-29T20:23:37.126Z,-3.99
2023-01-29T20:26:09.758Z,-4.00
2023-01-29T20:28:36.749Z,-4.12
2023-01-29T20:31:05.020Z,-4.07
2023-01-29T20:33:32.399Z,-4.07
2023-01-29T20:36:02.528Z,-4.10
2023-01-29T20:38:31.898Z,-4.13
2023-01-29T20:41:16.122Z,-4.05
2023-01-29T20:43:44.205Z,-3.99
2023-01-29T20:46:11.262Z,-4.09
2023-01-29T20:48:38.178Z,-4.05
2023-01-29T20:51:14.023Z,-4.14
2023-01-29T20:53:43.119Z,-4.05
2023-01-29T20:56:11.288Z,-4.03
2023-01-29T20:58:38.387Z,-4.03
2023-01-29T21:01:16.168Z,-4.03
2023-01-29T21:03:43.455Z,-4.02
2023-01-29T21:06:11.308Z,-3.99
2023-01-29T21:08:38.324Z,-3.98
2023-01-29T21:11:08.268Z,-3.97
2023-01-29T21:13:35.398Z,-3.95
2023-01-29T21:16:02.484Z,-3.94
2023-01-29T21:18:29.591Z,-3.98
2023-01-29T21:20:56.471Z,-3.98
2023-01-29T21:23:23.311Z,-3.89
2023-01-29T21:25:50.012Z,-3.84
2023-01-29T21:28:16.906Z,-3.79
2023-01-29T21:30:43.641Z,-3.74
2023-01-29T21:33:10.503Z,-3.75
2023-01-29T21:35:38.005Z,-3.80
2023-01-29T21:38:05.124Z,-3.79
2023-01-29T21:40:32.017Z,-3.81
2023-01-29T21:43:15.466Z,-3.80
2023-01-29T21:45:43.242Z,-3.82
2023-01-29T21:48:11.467Z,-3.87
2023-01-29T21:50:38.328Z,-3.86
2023-01-29T21:53:05.080Z,-3.80
2023-01-29T21:55:32.646Z,-3.80
2023-01-29T21:58:00.557Z,-3.82
2023-01-29T22:00:28.060Z,-3.86
2023-01-29T22:02:55.928Z,-3.82
2023-01-29T22:05:22.653Z,-3.87
2023-01-29T22:07:50.439Z,-4.00
2023-01-29T22:10:18.845Z,-3.94
2023-01-29T22:12:47.495Z,-3.85
2023-01-29T22:15:14.612Z,-3.83
2023-01-29T22:17:43.960Z,-3.79
2023-01-29T22:20:13.173Z,-3.77
2023-01-29T22:22:40.819Z,-3.71
2023-01-29T22:25:07.896Z,-3.77
2023-01-29T22:27:34.575Z,-3.88
2023-01-29T22:30:01.478Z,-3.73
2023-01-29T22:32:28.320Z,-3.74
2023-01-29T22:34:57.927Z,-3.65
2023-01-29T22:37:24.593Z,-3.61
2023-01-29T22:39:51.250Z,-3.79
2023-01-29T22:42:20.246Z,-3.60
2023-01-29T22:44:48.194Z,-3.61
2023-01-29T22:47:15.090Z,-3.68
2023-01-29T22:49:44.651Z,-3.66
2023-01-29T22:52:11.729Z,-3.65
2023-01-29T22:54:43.575Z,-3.64
2023-01-29T22:57:12.423Z,-3.54
2023-01-29T22:59:42.449Z,-3.52
2023-01-29T23:02:09.642Z,-3.51
2023-01-29T23:04:36.566Z,-3.56
2023-01-29T23:07:03.975Z,-3.67
2023-01-29T23:09:30.616Z,-3.69
2023-01-29T23:11:57.245Z,-3.63
2023-01-29T23:14:23.821Z,-3.60
2023-01-29T23:16:50.485Z,-3.64
2023-01-29T23:19:17.061Z,-3.67
2023-01-29T23:21:43.702Z,-3.76
2023-01-29T23:24:10.682Z,-3.73
2023-01-29T23:26:55.613Z,-3.73
2023-01-29T23:29:22.267Z,-3.74
2023-01-29T23:31:49.011Z,-3.66
2023-01-29T23:34:15.786Z,-3.69
2023-01-29T23:36:43.111Z,-3.63
2023-01-29T23:39:09.939Z,-3.61
2023-01-29T23:41:36.926Z,-3.63
2023-01-29T23:44:04.303Z,-3.65
2023-01-29T23:46:31.081Z,-3.60
2023-01-29T23:48:57.779Z,-3.65
2023-01-29T23:51:24.447Z,-3.69
2023-01-29T23:53:51.058Z,-3.73
2023-01-29T23:56:17.855Z,-3.71
2023-01-29T23:58:44.962Z,-3.73
